Estación Meteorológica Peña el Pijo (Robertgarden) [ 09/28/20 21:41:53 CEST ]

Fecha Hora Presion(HPa) Temp (°C) Humedad % Rocio (°C) Viento ( m/s) Direccion Lluvia 1Hora(mm) Lluvia 24H(mm) LLuvia Total(mm)
2020-Sep-23 01:09:44 1008.900 14.1 67 8.0 - N     89.61
2020-Sep-23 02:09:24 1008.800 14.1 68 8.2 - N     89.61
2020-Sep-23 03:09:15 1008.800 14.1 69 8.5 - N     89.61
2020-Sep-23 04:09:48 1008.300 13.1 72 8.2 - N     89.61
2020-Sep-23 05:10:11 1008.100 12.5 74 8.0 - N     89.61
2020-Sep-23 06:09:34 1007.700 12.2 75 7.9 - N     89.61
2020-Sep-23 07:09:25 1007.700 11.9 76 7.8 - N     89.61
2020-Sep-23 08:09:22 1007.600 11.2 79 7.7 - N     89.61
2020-Sep-23 09:09:32 1007.900 12.6 78 8.8 - N     89.61
2020-Sep-23 10:09:05 1007.900 19.1 57 10.4 - N     89.61
2020-Sep-23 11:09:50 1007.900 20.7 52 10.5 - N     89.61
2020-Sep-23 12:09:37 1007.800 22.9 35 6.5 - N     89.61
2020-Sep-23 13:09:54 1007.400 26.3 32 8.2 - N     89.61
2020-Sep-23 14:09:26 1007.300 26.1 35 9.3 - N     89.61
2020-Sep-23 15:09:36 1006.900 26.3 37 10.4 - N     89.61
2020-Sep-23 16:09:36 1006.900 25.8 38 10.4 - N     89.61
2020-Sep-23 17:09:46 1006.800 24.7 40 10.2 - N     89.61
2020-Sep-23 18:09:26 1006.600 23.5 43 9.8 - N     89.61
2020-Sep-23 19:09:16 1006.900 21.8 46 9.6 - N     89.61
2020-Sep-23 20:09:20 1007.600 20.3 51 9.8 - N     89.61
2020-Sep-23 21:09:30 1008.500 18.1 58 9.7 - N     89.61
2020-Sep-23 22:09:24 1009.100 15.9 67 9.8 - N     89.61
2020-Sep-23 23:09:52 1009.600 15.9 70 10.5 - N     89.61

Temperatura Máxima:26°    Temperatura Mínima:11°
Presión Máxima:1009.600 Hpa    Presión Mínima:1006.600 Hpa


Volver